Skip Navigation Links Skip Navigation Links

Current Weather

Eureka, Nunavut

For information only: do not use for flight planning or navigation.
Latest weather
Observation time Tuesday, September 28, 2021 5:00 AM CDT
Local time Tuesday, September 28, 2021 5:46 AM CDT
Flight conditions Instrument Meteorological Conditions
Winds
Wind direction Southeast (140°)
Wind speed 20 mph
Wind gusting to 26 mph
Visibility 2.5 mi.
Present weather light snow
Sky condition
Ceiling 2,500 ft. overcast
Cloud layer overcast 2,500 ft.
Temperature 27°F
Dewpoint 25°F
Altimeter 29.94 in.Hg
Derived measurements
Relative humidity 93%
Wind chill 13°F
Density altitude -2133 ft.
Sea-level pressure 29.97 in.Hg
METAR CWEU 281000Z 14017G23KT 2 1/2SM -SN OVC025 M03/M04 A2994 RMK SC8 SLP149

Settings

Location code

InnerDrive.Weather 4.0.6770.0 Release CLR 4.0.30319.42000
Copyright ©2018 Inner Drive Technology. All rights reserved. Portions Copyright ©1986-2018 David Braverman.

Find weather

Site navigation


Skip Navigation Links

Place info

Page info

PayPal - The safer, easier way to pay online!

Return home.

Copyright ©2021 Inner Drive Technology. Purveyors of fine, hand-crafted computer software. Page printed 2021-09-28T10:46:35 UTC.